createdAt,value
2022-12-08T00:01:39.109Z,1.60
2022-12-08T00:04:06.896Z,1.50
2022-12-08T00:06:59.453Z,1.50
2022-12-08T00:09:39.186Z,1.50
2022-12-08T00:12:12.392Z,1.40
2022-12-08T00:14:40.064Z,1.40
2022-12-08T00:17:08.391Z,1.30
2022-12-08T00:19:35.265Z,1.30
2022-12-08T00:22:03.244Z,1.30
2022-12-08T00:24:32.494Z,1.30
2022-12-08T00:26:59.252Z,1.20
2022-12-08T00:29:26.025Z,1.20
2022-12-08T00:31:53.520Z,1.20
2022-12-08T00:34:20.441Z,1.10
2022-12-08T00:36:47.285Z,1.10
2022-12-08T00:39:15.826Z,1.10
2022-12-08T00:42:01.169Z,1.10
2022-12-08T00:44:27.982Z,1.00
2022-12-08T00:46:55.445Z,1.00
2022-12-08T00:49:22.972Z,1.00
2022-12-08T00:51:49.780Z,0.90
2022-12-08T00:54:17.293Z,0.90
2022-12-08T00:56:44.157Z,0.90
2022-12-08T00:59:10.997Z,0.80
2022-12-08T01:01:38.071Z,0.80
2022-12-08T01:04:15.754Z,0.80
2022-12-08T01:06:43.333Z,0.80
2022-12-08T01:09:11.221Z,0.80
2022-12-08T01:11:38.076Z,0.80
2022-12-08T01:14:05.241Z,0.70
2022-12-08T01:16:35.423Z,0.70
2022-12-08T01:19:02.874Z,0.70
2022-12-08T01:21:29.945Z,0.70
2022-12-08T01:23:59.069Z,0.60
2022-12-08T01:26:25.855Z,0.60
2022-12-08T01:28:52.641Z,0.60
2022-12-08T01:31:21.196Z,0.60
2022-12-08T01:33:48.313Z,0.60
2022-12-08T01:36:30.923Z,0.50
2022-12-08T01:39:00.012Z,0.50
2022-12-08T01:41:30.061Z,0.50
2022-12-08T01:44:04.967Z,0.50
2022-12-08T01:46:33.832Z,0.50
2022-12-08T01:49:09.186Z,0.40
2022-12-08T01:51:42.324Z,0.40
2022-12-08T01:54:09.685Z,0.40
2022-12-08T01:56:43.862Z,0.40
2022-12-08T01:59:12.464Z,0.40
2022-12-08T02:01:40.015Z,0.30
2022-12-08T02:04:06.963Z,0.30
2022-12-08T02:06:38.591Z,0.30
2022-12-08T02:09:06.352Z,0.30
2022-12-08T02:11:33.194Z,0.30
2022-12-08T02:14:00.870Z,0.30
2022-12-08T02:17:08.672Z,0.30
2022-12-08T02:20:04.079Z,0.20
2022-12-08T02:22:43.197Z,0.20
2022-12-08T02:25:58.394Z,0.20
2022-12-08T02:28:56.581Z,0.20
2022-12-08T02:31:40.252Z,0.20
2022-12-08T02:34:19.171Z,0.20
2022-12-08T02:37:33.735Z,0.10
2022-12-08T02:40:12.358Z,0.10
2022-12-08T02:42:44.437Z,0.10
2022-12-08T02:45:17.247Z,0.00
2022-12-08T02:47:44.616Z,0.00
2022-12-08T02:50:12.224Z,0.00
2022-12-08T02:52:41.874Z,0.00
2022-12-08T02:55:19.403Z,-0.10
2022-12-08T02:57:57.489Z,-0.10
2022-12-08T03:00:26.654Z,-0.10
2022-12-08T03:03:20.589Z,-0.10
2022-12-08T03:06:17.334Z,-0.10
2022-12-08T03:08:47.129Z,-0.10
2022-12-08T03:11:20.709Z,-0.20
2022-12-08T03:13:54.637Z,-0.20
2022-12-08T03:16:25.251Z,-0.20
2022-12-08T03:19:04.045Z,-0.20
2022-12-08T03:21:34.324Z,-0.20
2022-12-08T03:24:03.956Z,-0.20
2022-12-08T03:26:45.829Z,-0.20
2022-12-08T03:29:13.359Z,-0.20
2022-12-08T03:31:45.293Z,-0.30
2022-12-08T03:34:14.007Z,-0.30
2022-12-08T03:36:40.840Z,-0.30
2022-12-08T03:39:07.594Z,-0.30
2022-12-08T03:41:34.398Z,-0.30
2022-12-08T03:44:01.271Z,-0.30
2022-12-08T03:48:57.078Z,-0.30
2022-12-08T03:51:24.543Z,-0.40
2022-12-08T03:53:51.440Z,-0.30
2022-12-08T03:56:30.657Z,-0.40
2022-12-08T03:58:57.485Z,-0.40
2022-12-08T04:01:24.511Z,-0.50
2022-12-08T04:03:51.426Z,-0.50
2022-12-08T04:06:19.100Z,-0.50
2022-12-08T04:08:45.920Z,-0.50
2022-12-08T04:11:12.739Z,-0.50
2022-12-08T04:13:40.811Z,-0.50
2022-12-08T04:16:08.512Z,-0.50
2022-12-08T04:18:36.160Z,-0.50
2022-12-08T04:21:03.046Z,-0.60
2022-12-08T04:23:30.009Z,-0.60
2022-12-08T04:25:56.761Z,-0.60
2022-12-08T04:28:23.522Z,-0.60
2022-12-08T04:30:50.596Z,-0.60
2022-12-08T04:33:17.535Z,-0.60
2022-12-08T04:35:44.458Z,-0.70
2022-12-08T04:38:11.338Z,-0.70
2022-12-08T04:40:38.440Z,-0.70
2022-12-08T04:43:05.460Z,-0.70
2022-12-08T04:45:32.822Z,-0.70
2022-12-08T04:48:00.604Z,-0.70
2022-12-08T04:50:28.010Z,-0.70
2022-12-08T04:52:54.800Z,-0.70
2022-12-08T04:55:21.865Z,-0.70
2022-12-08T04:57:49.233Z,-0.70
2022-12-08T05:00:16.998Z,-0.70
2022-12-08T05:02:43.832Z,-0.80
2022-12-08T05:05:10.691Z,-0.80
2022-12-08T05:07:37.960Z,-0.80
2022-12-08T05:10:05.778Z,-0.80
2022-12-08T05:12:33.229Z,-0.80
2022-12-08T05:15:00.074Z,-0.80
2022-12-08T05:17:26.897Z,-0.90
2022-12-08T05:19:53.816Z,-0.90
2022-12-08T05:22:20.751Z,-0.90
2022-12-08T05:24:48.034Z,-1.00
2022-12-08T05:27:15.179Z,-0.90
2022-12-08T05:29:42.446Z,-1.00
2022-12-08T05:32:09.309Z,-1.00
2022-12-08T05:34:36.106Z,-1.00
2022-12-08T05:37:02.876Z,-1.00
2022-12-08T05:39:29.680Z,-1.00
2022-12-08T05:41:56.474Z,-1.00
2022-12-08T05:44:23.299Z,-1.00
2022-12-08T05:46:50.218Z,-1.00
2022-12-08T05:49:17.172Z,-1.10
2022-12-08T05:51:44.039Z,-1.10
2022-12-08T05:54:10.852Z,-1.10
2022-12-08T05:56:37.628Z,-1.00
2022-12-08T05:59:07.739Z,-1.00
2022-12-08T06:01:35.015Z,-1.10
2022-12-08T06:04:03.823Z,-1.10
2022-12-08T06:06:31.562Z,-1.10
2022-12-08T06:08:58.402Z,-1.10
2022-12-08T06:11:30.145Z,-1.10
2022-12-08T06:13:57.736Z,-1.10
2022-12-08T06:16:28.439Z,-1.10
2022-12-08T06:18:56.437Z,-1.10
2022-12-08T06:21:23.860Z,-1.10
2022-12-08T06:23:52.714Z,-1.20
2022-12-08T06:26:20.275Z,-1.20
2022-12-08T06:28:47.488Z,-1.20
2022-12-08T06:31:23.022Z,-1.30
2022-12-08T06:33:50.442Z,-1.30
2022-12-08T06:36:19.050Z,-1.30
2022-12-08T06:38:46.340Z,-1.30
2022-12-08T06:41:13.586Z,-1.30
2022-12-08T06:43:41.189Z,-1.30
2022-12-08T06:46:10.812Z,-1.30
2022-12-08T06:48:37.858Z,-1.30
2022-12-08T06:51:17.000Z,-1.30
2022-12-08T06:53:45.210Z,-1.30
2022-12-08T06:56:12.735Z,-1.30
2022-12-08T06:58:40.752Z,-1.30
2022-12-08T07:01:10.195Z,-1.30
2022-12-08T07:03:38.037Z,-1.40
2022-12-08T07:06:05.175Z,-1.40
2022-12-08T07:08:33.189Z,-1.30
2022-12-08T07:11:00.155Z,-1.40
2022-12-08T07:13:26.953Z,-1.40
2022-12-08T07:15:53.715Z,-1.40
2022-12-08T07:18:20.439Z,-1.30
2022-12-08T07:20:47.189Z,-1.40
2022-12-08T07:23:14.198Z,-1.30
2022-12-08T07:25:40.952Z,-1.30
2022-12-08T07:28:09.627Z,-1.40
2022-12-08T07:30:36.597Z,-1.30
2022-12-08T07:33:05.625Z,-1.30
2022-12-08T07:35:34.839Z,-1.30
2022-12-08T07:38:02.434Z,-1.30
2022-12-08T07:40:29.314Z,-1.30
2022-12-08T07:42:56.142Z,-1.30
2022-12-08T07:45:28.230Z,-1.30
2022-12-08T07:47:58.187Z,-1.30
2022-12-08T07:50:25.003Z,-1.20
2022-12-08T07:52:51.752Z,-1.20
2022-12-08T07:55:18.496Z,-1.20
2022-12-08T07:57:45.300Z,-1.20
2022-12-08T08:00:12.755Z,-1.10
2022-12-08T08:02:40.176Z,-1.10
2022-12-08T08:05:07.781Z,-1.10
2022-12-08T08:07:34.944Z,-1.10
2022-12-08T08:10:01.987Z,-1.00
2022-12-08T08:12:31.680Z,-1.00
2022-12-08T08:15:00.343Z,-1.00
2022-12-08T08:17:27.871Z,-0.90
2022-12-08T08:19:54.802Z,-0.90
2022-12-08T08:22:21.599Z,-0.90
2022-12-08T08:24:48.376Z,-0.80
2022-12-08T08:27:15.151Z,-0.80
2022-12-08T08:29:41.952Z,-0.80
2022-12-08T08:32:08.904Z,-0.70
2022-12-08T08:34:35.737Z,-0.70
2022-12-08T08:37:02.758Z,-0.60
2022-12-08T08:39:31.691Z,-0.60
2022-12-08T08:41:58.482Z,-0.60
2022-12-08T08:44:25.322Z,-0.50
2022-12-08T08:46:52.193Z,-0.50
2022-12-08T08:49:19.125Z,-0.40
2022-12-08T08:51:46.226Z,-0.40
2022-12-08T08:54:13.052Z,-0.30
2022-12-08T08:56:39.842Z,-0.30
2022-12-08T08:59:06.678Z,-0.20
2022-12-08T09:01:34.480Z,-0.20
2022-12-08T09:04:01.583Z,-0.10
2022-12-08T09:06:28.708Z,-0.10
2022-12-08T09:08:55.727Z,0.00
2022-12-08T09:11:23.568Z,0.00
2022-12-08T09:13:52.174Z,0.10
2022-12-08T09:16:19.417Z,0.10
2022-12-08T09:18:46.555Z,0.20
2022-12-08T09:21:16.763Z,0.20
2022-12-08T09:23:44.025Z,0.30
2022-12-08T09:26:11.005Z,0.40
2022-12-08T09:28:38.068Z,0.40
2022-12-08T09:31:05.294Z,0.50
2022-12-08T09:33:33.517Z,0.50
2022-12-08T09:36:04.510Z,0.60
2022-12-08T09:38:32.099Z,0.60
2022-12-08T09:40:59.862Z,0.70
2022-12-08T09:44:11.065Z,0.70
2022-12-08T09:46:38.851Z,0.80
2022-12-08T09:49:14.033Z,0.80
2022-12-08T09:51:44.081Z,0.90
2022-12-08T09:54:24.850Z,0.90
2022-12-08T09:57:00.584Z,1.00
2022-12-08T09:59:30.385Z,1.00
2022-12-08T10:02:03.735Z,1.00
2022-12-08T10:04:39.664Z,1.10
2022-12-08T10:07:28.373Z,1.10
2022-12-08T10:10:24.086Z,1.10
2022-12-08T10:12:59.569Z,1.20
2022-12-08T10:15:57.048Z,1.20
2022-12-08T10:18:28.022Z,1.20
2022-12-08T10:21:00.209Z,1.30
2022-12-08T10:23:35.773Z,1.30
2022-12-08T10:26:05.497Z,1.30
2022-12-08T10:28:34.283Z,1.40
2022-12-08T10:31:01.250Z,1.40
2022-12-08T10:33:31.161Z,1.50
2022-12-08T10:36:02.848Z,1.50
2022-12-08T10:38:35.026Z,1.50
2022-12-08T10:41:06.825Z,1.60
2022-12-08T10:43:36.605Z,1.60
2022-12-08T10:46:22.312Z,1.70
2022-12-08T10:49:05.891Z,1.70
2022-12-08T10:51:39.549Z,1.80
2022-12-08T10:54:37.315Z,1.80
2022-12-08T10:57:04.306Z,1.90
2022-12-08T10:59:33.850Z,1.90
2022-12-08T11:02:00.970Z,2.00
2022-12-08T11:04:38.173Z,2.00
2022-12-08T11:07:08.697Z,2.10
2022-12-08T11:09:49.115Z,2.10
2022-12-08T11:12:17.613Z,2.20
2022-12-08T11:14:44.350Z,2.30
2022-12-08T11:17:40.599Z,2.30
2022-12-08T11:20:10.497Z,2.40
2022-12-08T11:22:42.179Z,2.50
2022-12-08T11:25:11.848Z,2.50
2022-12-08T11:27:59.102Z,2.60
2022-12-08T11:30:31.045Z,2.60
2022-12-08T11:33:06.393Z,2.70
2022-12-08T11:35:37.493Z,2.80
2022-12-08T11:38:25.898Z,2.80
2022-12-08T11:41:00.213Z,2.90
2022-12-08T11:43:52.904Z,3.00
2022-12-08T11:46:27.521Z,3.10
2022-12-08T11:49:07.044Z,3.20
2022-12-08T11:51:43.194Z,3.20
2022-12-08T11:54:32.874Z,3.30
2022-12-08T11:57:02.072Z,3.40
2022-12-08T11:59:34.303Z,3.40
2022-12-08T12:02:02.914Z,3.40
2022-12-08T12:04:49.224Z,3.50
2022-12-08T12:07:39.283Z,3.50
2022-12-08T12:10:28.136Z,3.50
2022-12-08T12:13:36.364Z,3.50
2022-12-08T12:16:24.666Z,3.50
2022-12-08T12:19:01.698Z,3.60
2022-12-08T12:21:36.716Z,3.60
2022-12-08T12:24:28.305Z,3.70
2022-12-08T12:27:15.351Z,3.70
2022-12-08T12:30:05.580Z,3.80
2022-12-08T12:33:11.947Z,3.80
2022-12-08T12:35:42.638Z,3.80
2022-12-08T12:38:52.212Z,3.90
2022-12-08T12:41:41.927Z,3.80
2022-12-08T12:44:11.813Z,3.90
2022-12-08T12:46:54.655Z,4.00
2022-12-08T12:49:46.064Z,4.10
2022-12-08T12:52:15.882Z,4.10
2022-12-08T12:55:02.584Z,4.00
2022-12-08T12:57:46.371Z,4.10
2022-12-08T13:00:25.164Z,4.00
2022-12-08T13:02:55.707Z,4.00
2022-12-08T13:05:46.940Z,4.00
2022-12-08T13:08:22.748Z,3.90
2022-12-08T13:11:10.134Z,3.90
2022-12-08T13:13:57.295Z,3.90
2022-12-08T13:16:31.453Z,3.90
2022-12-08T13:19:02.387Z,3.90
2022-12-08T13:21:35.100Z,3.90
2022-12-08T13:24:13.771Z,3.90
2022-12-08T13:26:44.432Z,4.00
2022-12-08T13:29:19.003Z,4.00
2022-12-08T13:32:01.332Z,3.90
2022-12-08T13:34:51.448Z,3.90
2022-12-08T13:37:20.953Z,3.90
2022-12-08T13:40:10.481Z,3.90
2022-12-08T13:43:05.012Z,3.90
2022-12-08T13:46:20.154Z,3.90
2022-12-08T13:49:18.543Z,3.90
2022-12-08T13:57:24.617Z,3.70
2022-12-08T13:59:51.466Z,3.70
2022-12-08T14:02:33.531Z,3.70
2022-12-08T14:07:49.549Z,3.60
2022-12-08T14:10:18.766Z,3.50
2022-12-08T14:12:48.080Z,3.50
2022-12-08T14:15:16.058Z,3.50
2022-12-08T14:17:54.857Z,3.40
2022-12-08T14:20:24.603Z,3.40
2022-12-08T14:22:52.605Z,3.30
2022-12-08T14:25:20.634Z,3.30
2022-12-08T14:27:48.627Z,3.30
2022-12-08T14:30:28.080Z,3.30
2022-12-08T14:32:58.418Z,3.20
2022-12-08T14:35:27.237Z,3.20
2022-12-08T14:38:18.280Z,3.20
2022-12-08T14:40:47.578Z,3.20
2022-12-08T14:43:19.697Z,3.20
2022-12-08T14:45:48.643Z,3.10
2022-12-08T14:48:22.996Z,3.10
2022-12-08T14:50:59.314Z,3.10
2022-12-08T14:53:26.379Z,3.10
2022-12-08T14:55:53.360Z,3.10
2022-12-08T14:58:28.966Z,3.00
2022-12-08T15:01:00.864Z,3.00
2022-12-08T15:03:30.325Z,3.00
2022-12-08T15:06:00.607Z,3.00
2022-12-08T15:08:27.614Z,3.00
2022-12-08T15:11:35.009Z,2.90
2022-12-08T15:14:02.161Z,2.90
2022-12-08T15:16:39.404Z,2.90
2022-12-08T15:19:24.386Z,2.90
2022-12-08T15:21:51.388Z,2.90
2022-12-08T15:24:21.388Z,2.90
2022-12-08T15:26:49.913Z,2.80
2022-12-08T15:29:28.952Z,2.80
2022-12-08T15:31:58.390Z,2.80
2022-12-08T15:34:25.233Z,2.80
2022-12-08T15:36:53.690Z,2.80
2022-12-08T15:39:36.822Z,2.80
2022-12-08T15:42:04.671Z,2.80
2022-12-08T15:44:32.825Z,2.80
2022-12-08T15:47:00.668Z,2.70
2022-12-08T15:49:27.753Z,2.70
2022-12-08T15:52:03.499Z,2.70
2022-12-08T15:54:37.354Z,2.70
2022-12-08T15:57:19.586Z,2.70
2022-12-08T15:59:49.620Z,2.60
2022-12-08T16:02:22.208Z,2.70
2022-12-08T16:07:38.259Z,2.60
2022-12-08T16:10:07.256Z,2.60
2022-12-08T16:16:00.806Z,2.60
2022-12-08T16:19:11.408Z,2.60
2022-12-08T16:22:45.025Z,2.60
2022-12-08T16:24:34.256Z,2.50
2022-12-08T16:28:29.610Z,2.50
2022-12-08T16:30:56.316Z,2.50
2022-12-08T16:33:29.207Z,2.40
2022-12-08T16:35:56.260Z,2.40
2022-12-08T16:38:23.017Z,2.40
2022-12-08T16:44:07.077Z,2.40
2022-12-08T16:47:37.554Z,2.30
2022-12-08T16:50:21.768Z,2.30
2022-12-08T16:52:50.530Z,2.20
2022-12-08T16:55:21.495Z,2.20
2022-12-08T16:57:48.575Z,2.20
2022-12-08T17:00:28.248Z,2.20
2022-12-08T17:03:09.460Z,2.20
2022-12-08T17:06:04.503Z,2.30
2022-12-08T17:08:31.697Z,2.20
2022-12-08T17:11:15.864Z,2.20
2022-12-08T17:13:51.594Z,2.20
2022-12-08T17:19:18.981Z,2.10
2022-12-08T17:22:12.821Z,2.10
2022-12-08T17:24:39.793Z,2.00
2022-12-08T17:27:15.504Z,2.00
2022-12-08T17:29:42.308Z,2.00
2022-12-08T17:32:18.724Z,1.90
2022-12-08T17:34:46.009Z,1.90
2022-12-08T17:37:19.454Z,1.90
2022-12-08T17:39:46.353Z,1.90
2022-12-08T17:42:25.815Z,1.90
2022-12-08T17:45:01.549Z,1.90
2022-12-08T17:47:28.689Z,1.90
2022-12-08T17:50:06.077Z,1.90
2022-12-08T17:52:33.247Z,1.90
2022-12-08T17:57:55.261Z,1.90
2022-12-08T18:00:28.533Z,1.90
2022-12-08T18:02:56.571Z,1.90
2022-12-08T18:05:49.814Z,1.90
2022-12-08T18:08:17.319Z,1.90
2022-12-08T18:10:53.168Z,1.90
2022-12-08T18:13:20.002Z,1.90
2022-12-08T18:15:53.731Z,1.90
2022-12-08T18:18:22.618Z,1.80
2022-12-08T18:20:56.999Z,1.90
2022-12-08T18:23:23.851Z,1.80
2022-12-08T18:26:17.552Z,1.80
2022-12-08T18:28:44.414Z,1.80
2022-12-08T18:31:29.006Z,1.80
2022-12-08T18:34:07.365Z,1.80
2022-12-08T18:36:43.575Z,1.70
2022-12-08T18:39:24.975Z,1.70
2022-12-08T18:41:53.023Z,1.70
2022-12-08T18:44:31.261Z,1.60
2022-12-08T18:47:06.109Z,1.60
2022-12-08T18:49:33.036Z,1.50
2022-12-08T18:52:31.715Z,1.40
2022-12-08T18:55:09.083Z,1.40
2022-12-08T18:57:56.042Z,1.40
2022-12-08T19:00:33.526Z,1.30
2022-12-08T19:03:00.514Z,1.30
2022-12-08T19:05:37.713Z,1.20
2022-12-08T19:08:05.837Z,1.10
2022-12-08T19:10:56.664Z,1.10
2022-12-08T19:13:23.542Z,1.10
2022-12-08T19:16:22.977Z,1.00
2022-12-08T19:23:03.087Z,1.00
2022-12-08T19:29:12.389Z,0.80
2022-12-08T19:31:45.885Z,0.70
2022-12-08T19:37:46.849Z,0.60
2022-12-08T19:40:33.129Z,0.60
2022-12-08T19:43:45.546Z,0.50
2022-12-08T19:46:40.029Z,0.50
2022-12-08T19:49:13.021Z,0.40
2022-12-08T19:51:40.029Z,0.40
2022-12-08T19:54:14.227Z,0.40
2022-12-08T19:56:41.067Z,0.40
2022-12-08T20:00:14.389Z,0.30
2022-12-08T20:02:41.541Z,0.30
2022-12-08T20:05:26.925Z,0.30
2022-12-08T20:12:46.904Z,0.20
2022-12-08T20:15:31.475Z,0.20
2022-12-08T20:18:25.477Z,0.10
2022-12-08T20:22:04.235Z,0.10
2022-12-08T20:24:51.889Z,0.00
2022-12-08T20:27:53.500Z,0.00
2022-12-08T20:30:49.239Z,0.00
2022-12-08T20:33:48.946Z,-0.10
2022-12-08T20:36:19.390Z,0.00
2022-12-08T20:39:11.587Z,-0.10
2022-12-08T20:41:39.401Z,-0.10
2022-12-08T20:44:13.811Z,-0.10
2022-12-08T20:50:19.862Z,-0.20
2022-12-08T20:54:22.036Z,-0.20
2022-12-08T20:56:24.192Z,-0.20
2022-12-08T20:59:00.391Z,-0.20
2022-12-08T21:02:21.925Z,-0.20
2022-12-08T21:05:04.628Z,-0.20
2022-12-08T21:07:32.542Z,-0.30
2022-12-08T21:10:48.210Z,-0.30
2022-12-08T21:13:25.359Z,-0.30
2022-12-08T21:15:55.160Z,-0.40
2022-12-08T21:18:48.670Z,-0.40
2022-12-08T21:24:11.887Z,-0.40
2022-12-08T21:26:38.960Z,-0.50
2022-12-08T21:29:55.871Z,-0.50
2022-12-08T21:32:31.983Z,-0.50
2022-12-08T21:34:58.987Z,-0.50
2022-12-08T21:37:35.172Z,-0.60
2022-12-08T21:40:14.422Z,-0.50
2022-12-08T21:42:44.024Z,-0.50
2022-12-08T21:48:21.917Z,-0.60
2022-12-08T21:51:42.278Z,-0.60
2022-12-08T21:55:02.496Z,-0.70
2022-12-08T21:57:47.536Z,-0.70
2022-12-08T22:01:04.170Z,-0.70
2022-12-08T22:03:46.159Z,-0.70
2022-12-08T22:06:13.921Z,-0.70
2022-12-08T22:08:47.253Z,-0.80
2022-12-08T22:11:14.278Z,-0.80
2022-12-08T22:14:14.459Z,-0.80
2022-12-08T22:17:11.213Z,-0.80
2022-12-08T22:19:40.796Z,-0.80
2022-12-08T22:22:59.052Z,-0.80
2022-12-08T22:25:57.207Z,-0.80
2022-12-08T22:28:41.994Z,-0.90
2022-12-08T22:31:21.108Z,-1.00
2022-12-08T22:33:53.011Z,-0.90
2022-12-08T22:36:24.940Z,-1.00
2022-12-08T22:38:53.391Z,-1.00
2022-12-08T22:41:21.287Z,-1.00
2022-12-08T22:43:48.811Z,-1.00
2022-12-08T22:46:18.657Z,-1.00
2022-12-08T22:48:45.820Z,-1.00
2022-12-08T22:51:12.901Z,-1.00
2022-12-08T22:53:40.215Z,-1.10
2022-12-08T22:56:09.773Z,-1.10
2022-12-08T22:58:37.787Z,-1.10
2022-12-08T23:01:05.949Z,-1.10
2022-12-08T23:03:33.248Z,-1.10
2022-12-08T23:06:00.760Z,-1.10
2022-12-08T23:08:27.806Z,-1.20
2022-12-08T23:10:55.334Z,-1.20
2022-12-08T23:13:22.525Z,-1.20
2022-12-08T23:15:49.966Z,-1.20
2022-12-08T23:18:21.198Z,-1.30
2022-12-08T23:20:48.314Z,-1.20
2022-12-08T23:23:15.574Z,-1.30
2022-12-08T23:25:43.074Z,-1.30
2022-12-08T23:28:10.853Z,-1.20
2022-12-08T23:30:40.838Z,-1.30
2022-12-08T23:33:08.384Z,-1.30
2022-12-08T23:35:35.381Z,-1.30
2022-12-08T23:38:02.135Z,-1.30
2022-12-08T23:40:28.972Z,-1.30
2022-12-08T23:42:55.998Z,-1.30
2022-12-08T23:45:22.983Z,-1.40
2022-12-08T23:47:49.971Z,-1.40
2022-12-08T23:50:16.993Z,-1.40
2022-12-08T23:52:43.996Z,-1.40
2022-12-08T23:55:11.165Z,-1.40
2022-12-08T23:57:38.620Z,-1.40
